createdAt,value
2018-04-12T00:04:18.255Z,1002.1
2018-04-12T00:14:32.392Z,1002.0
2018-04-12T00:24:47.577Z,1001.9
2018-04-12T00:35:01.659Z,1001.8
2018-04-12T00:45:15.990Z,1001.7
2018-04-12T00:56:01.977Z,1001.6
2018-04-12T01:06:29.439Z,1001.6
2018-04-12T01:16:43.308Z,1001.5
2018-04-12T01:26:55.437Z,1001.5
2018-04-12T01:37:09.708Z,1001.3
2018-04-12T01:47:23.734Z,1001.2
2018-04-12T01:57:38.308Z,1001.2
2018-04-12T02:07:52.604Z,1001.3
2018-04-12T02:18:05.036Z,1001.1
2018-04-12T02:28:16.935Z,1001.0
2018-04-12T02:38:28.443Z,1000.7
2018-04-12T02:48:42.841Z,1000.7
2018-04-12T02:59:28.504Z,1000.8
2018-04-12T03:09:40.990Z,1000.7
2018-04-12T03:20:45.898Z,1000.7
2018-04-12T03:31:01.115Z,1000.6
2018-04-12T03:41:16.361Z,1000.4
2018-04-12T03:51:30.573Z,1000.2
2018-04-12T04:01:48.478Z,999.9
2018-04-12T04:12:00.195Z,999.8
2018-04-12T04:22:47.424Z,999.9
2018-04-12T04:33:00.988Z,1000.0
2018-04-12T04:43:15.306Z,999.8
2018-04-12T04:53:29.905Z,999.9
2018-04-12T05:04:15.121Z,999.9
2018-04-12T05:14:29.144Z,999.9
2018-04-12T05:25:03.605Z,999.9
2018-04-12T05:35:18.117Z,999.7
2018-04-12T05:45:32.477Z,999.7
2018-04-12T05:56:17.756Z,999.8
2018-04-12T06:06:31.070Z,999.6
2018-04-12T06:17:00.859Z,999.6
2018-04-12T06:27:14.535Z,999.5
2018-04-12T06:37:28.815Z,999.2
2018-04-12T06:47:43.303Z,999.3
2018-04-12T06:57:57.430Z,999.3
2018-04-12T07:08:09.663Z,999.3
2018-04-12T07:18:26.343Z,999.1
2018-04-12T07:28:40.008Z,999.1
2018-04-12T07:38:54.013Z,999.2
2018-04-12T07:49:39.863Z,999.3
2018-04-12T08:00:25.402Z,999.5
2018-04-12T08:24:55.985Z,999.4
2018-04-12T08:35:49.709Z,999.3
2018-04-12T08:46:02.230Z,999.3
2018-04-12T08:56:17.047Z,999.2
2018-04-12T09:06:31.661Z,999.0
2018-04-12T09:16:45.814Z,998.7
2018-04-12T09:26:57.662Z,998.5
2018-04-12T09:37:33.803Z,998.3
2018-04-12T09:47:48.756Z,998.3
2018-04-12T09:58:02.766Z,998.3
2018-04-12T10:08:48.514Z,998.2
2018-04-12T10:40:07.673Z,997.6
2018-04-12T10:50:32.360Z,997.5
2018-04-12T11:02:07.926Z,997.3
2018-04-12T11:12:22.296Z,997.3
2018-04-12T11:23:13.249Z,997.4
2018-04-12T11:33:25.266Z,997.5
2018-04-12T11:43:40.376Z,997.5
2018-04-12T11:54:12.096Z,997.9
2018-04-12T12:04:27.024Z,997.7
2018-04-12T12:14:40.908Z,997.7
2018-04-12T12:24:52.620Z,997.4
2018-04-12T12:35:04.455Z,997.4
2018-04-12T12:45:19.323Z,997.3
2018-04-12T12:56:34.163Z,996.7
2018-04-12T13:07:56.966Z,997.1
2018-04-12T13:18:27.860Z,997.0
2018-04-12T13:28:41.504Z,996.6
2018-04-12T13:38:56.764Z,996.7
2018-04-12T13:49:11.436Z,997.0
2018-04-12T13:59:25.446Z,996.7
2018-04-12T14:09:39.395Z,996.4
2018-04-12T14:19:53.754Z,996.1
2018-04-12T14:30:05.788Z,996.1
2018-04-12T14:40:18.277Z,996.3
2018-04-12T14:50:33.231Z,996.2
2018-04-12T15:00:47.585Z,996.3
2018-04-12T15:11:01.673Z,996.1
2018-04-12T15:21:47.237Z,996.3
2018-04-12T15:32:01.708Z,996.4
2018-04-12T15:42:12.883Z,996.3
2018-04-12T15:52:47.259Z,996.2
2018-04-12T16:03:02.900Z,996.1
2018-04-12T16:13:16.996Z,996.1
2018-04-12T16:24:02.676Z,996.2
2018-04-12T16:34:16.679Z,996.2
2018-04-12T16:44:31.134Z,996.3
2018-04-12T16:54:45.105Z,996.2
2018-04-12T17:05:04.532Z,996.5
2018-04-12T17:16:01.793Z,996.6
2018-04-12T17:37:45.722Z,997.1
2018-04-12T17:48:24.021Z,997.1
2018-04-12T17:58:48.908Z,996.4
2018-04-12T18:09:15.043Z,996.6
2018-04-12T18:40:05.745Z,996.8
2018-04-12T18:50:52.810Z,997.0
2018-04-12T19:27:16.995Z,997.5
2018-04-12T19:37:39.216Z,997.5
2018-04-12T19:48:27.224Z,997.6
2018-04-12T20:00:18.312Z,997.7
2018-04-12T20:43:09.622Z,997.6
2018-04-12T20:54:31.223Z,997.6
2018-04-12T21:04:43.360Z,997.5
2018-04-12T21:16:20.676Z,997.6
2018-04-12T21:26:35.169Z,997.6
2018-04-12T21:37:45.788Z,997.6
2018-04-12T21:48:00.558Z,997.7
2018-04-12T21:58:15.062Z,997.7
2018-04-12T22:10:15.315Z,997.8
2018-04-12T22:20:29.046Z,997.8
2018-04-12T22:30:41.236Z,998.0
2018-04-12T22:40:55.422Z,998.0
2018-04-12T22:51:55.168Z,998.0
2018-04-12T23:02:09.487Z,998.0
2018-04-12T23:12:23.781Z,998.1
2018-04-12T23:22:37.873Z,998.2
2018-04-12T23:33:23.610Z,998.3
2018-04-12T23:43:35.761Z,998.4
2018-04-12T23:53:50.185Z,998.5
